Terminal Aerodrome Forecast
Issued by NWS

Home | Current Version | Previous Version | Text Only | Print | Product List | Glossary Off
Versions: 1 2 3 4 5 6 7 8 9 10 11 12 13 14 15 16 17 18 19 20

000
FTUS42 KMHX 150500 RRA
TAFISO
TAF
KISO 150545Z 1506/1606 17012G18KT P6SM VCSH OVC014
     FM151300 19014G20KT P6SM BKN025
     FM151900 20015G23KT P6SM -RA VCTS SCT007 BKN025CB
     FM152300 28010G18KT 4SM -RA SCT007 BKN015
     FM160200 34018G26KT P6SM BKN035
      AMD LTD TO CLD VIS AND WIND=

USA.gov is the U.S. government's official web portal to all federal, state and local government web resources and services.